»·PEaware :: N664TL KSAN-KSNA

N664TL :: KSAN-KSNA

FLIGHT INFORMATION

Flight Status: Arrived
Operator: Privately registered:
United States
More flights under this callsign
Pilot: Anonymous 328 (328)
Aircraft: Unknown
(G500)
More flights by this aircraft type
Origin: KSAN San Diego Intl-Lindbergh
United States
Destination: KSNA John Wayne-Orange Co
United States
More flights between these airports :: More routes between these airports
Route: +CWARD2 SLI
File this flight plan on PilotEdge
Remarks:
Altitude:
(Current/Filed)
10,000ft
Speed:
(Current/Filed)
0kts
Departed: 28-Sep-18 06:00 AM
Arrived: 28-Sep-18 06:27 AM
Distance/Time
Traveled:
66nm/0:27
Distance/Time
To Go:
Arrived

Flight Plot

Page will automatically refresh every two minutes.

Flight plan parsing failed; only flown route is shown


Map Options




Map Legend


Flown Route
Filed Route
Departure Airport
Arrival Airport
Navaid (VOR, NDB)
Fix

Horizontal Profiles

Position Reports

Time Latitude Longitude Heading Altitude Ground
Speed
28-Sep-18 04:59 32.732899 -117.179199 104 21ft 0kts
28-Sep-18 05:00 32.732899 -117.179199 104 21ft 0kts
28-Sep-18 05:01 32.732899 -117.179199 104 21ft 0kts
28-Sep-18 05:02 32.732899 -117.179199 104 21ft 0kts
28-Sep-18 05:03 32.732899 -117.179199 104 21ft 0kts
28-Sep-18 05:04 32.732899 -117.179199 104 21ft 0kts
28-Sep-18 05:05 32.732899 -117.179199 104 21ft 0kts
28-Sep-18 05:06 32.732899 -117.179199 104 21ft 0kts
28-Sep-18 05:07 32.732899 -117.179199 104 21ft 0kts
28-Sep-18 05:08 32.732899 -117.179199 104 21ft 0kts
28-Sep-18 05:09 32.732899 -117.179199 104 21ft 0kts
28-Sep-18 05:10 32.732899 -117.179199 104 21ft 0kts
28-Sep-18 05:11 32.732899 -117.179199 104 21ft 0kts
28-Sep-18 05:12 32.732899 -117.179199 104 21ft 0kts
28-Sep-18 05:13 32.732899 -117.179199 104 21ft 0kts
28-Sep-18 05:14 32.732899 -117.179199 104 21ft 0kts
28-Sep-18 05:15 32.732899 -117.179199 104 21ft 0kts
28-Sep-18 05:16 32.732899 -117.179199 104 21ft 0kts
28-Sep-18 05:17 32.732899 -117.179199 104 21ft 0kts
28-Sep-18 05:22 32.732899 -117.179199 104 21ft 0kts
28-Sep-18 05:23 32.732899 -117.179199 104 21ft 0kts
28-Sep-18 05:24 32.732899 -117.179199 104 21ft 0kts
28-Sep-18 05:25 32.732899 -117.179199 104 21ft 0kts
28-Sep-18 05:26 32.732899 -117.179199 104 21ft 0kts
28-Sep-18 05:27 32.732899 -117.179199 104 21ft 0kts
28-Sep-18 05:28 32.732899 -117.179199 104 21ft 0kts
28-Sep-18 05:29 32.732899 -117.179199 104 21ft 0kts
28-Sep-18 05:30 32.732899 -117.179199 104 21ft 0kts
28-Sep-18 05:31 32.732899 -117.179199 104 21ft 0kts
28-Sep-18 05:32 32.732899 -117.179199 104 21ft 0kts
28-Sep-18 05:33 32.732899 -117.179199 104 21ft 0kts
28-Sep-18 05:34 32.732899 -117.179199 104 21ft 0kts
28-Sep-18 05:35 32.732899 -117.179199 104 21ft 0kts
28-Sep-18 05:36 32.732899 -117.179199 104 21ft 0kts
28-Sep-18 05:37 32.732899 -117.179199 104 21ft 0kts
28-Sep-18 05:38 32.732899 -117.179199 104 21ft 0kts
28-Sep-18 05:39 32.732899 -117.179199 104 21ft 0kts
28-Sep-18 05:40 32.732899 -117.179199 104 21ft 0kts
28-Sep-18 05:41 32.732899 -117.179199 104 21ft 0kts
28-Sep-18 05:42 32.732899 -117.179199 104 21ft 0kts
28-Sep-18 05:43 32.732899 -117.179199 104 21ft 0kts
28-Sep-18 05:44 32.732899 -117.179199 104 21ft 0kts
28-Sep-18 05:45 32.732899 -117.179199 104 21ft 0kts
28-Sep-18 05:46 32.732899 -117.179199 104 21ft 0kts
28-Sep-18 05:47 32.732899 -117.179199 104 21ft 0kts
28-Sep-18 05:48 32.732899 -117.179199 104 21ft 0kts
28-Sep-18 05:49 32.732899 -117.179199 104 21ft 0kts
28-Sep-18 05:50 32.732899 -117.179199 104 21ft 0kts
28-Sep-18 05:51 32.732899 -117.179199 104 21ft 0kts
28-Sep-18 05:52 32.732899 -117.179199 104 21ft 0kts
28-Sep-18 05:53 32.732899 -117.179199 104 21ft 0kts
28-Sep-18 05:54 32.732899 -117.179199 104 21ft 0kts
28-Sep-18 05:55 32.732899 -117.179199 104 21ft 0kts
28-Sep-18 05:56 32.732899 -117.179199 104 21ft 0kts
28-Sep-18 05:57 32.732811 -117.178741 103 21ft 2kts
28-Sep-18 05:58 32.732361 -117.177071 129 21ft 0kts
28-Sep-18 05:59 32.732216 -117.176941 154 21ft 8kts
28-Sep-18 06:00 32.731022 -117.175583 143 21ft 1kts
28-Sep-18 06:01 32.730179 -117.175667 283 21ft 0kts
28-Sep-18 06:02 32.732403 -117.184868 286 24ft 155kts
28-Sep-18 06:03 32.758553 -117.243095 303 3992ft 238kts
28-Sep-18 06:04 32.798561 -117.316902 304 8426ft 279kts
28-Sep-18 06:05 32.846764 -117.391609 308 10002ft 289kts
28-Sep-18 06:06 32.899754 -117.473900 308 10009ft 306kts
28-Sep-18 06:07 32.949009 -117.550209 307 10009ft 288kts
28-Sep-18 06:08 32.997711 -117.626457 307 10015ft 288kts
28-Sep-18 06:09 33.046265 -117.702293 307 10022ft 288kts
28-Sep-18 06:10 33.103268 -117.769592 319 10018ft 288kts
28-Sep-18 06:11 33.164204 -117.831711 319 9947ft 288kts
28-Sep-18 06:12 33.235390 -117.872269 348 9444ft 286kts
28-Sep-18 06:13 33.300301 -117.888367 348 9030ft 284kts
28-Sep-18 06:14 33.390926 -117.910416 355 8794ft 283kts
28-Sep-18 06:15 33.438065 -117.852592 100 8296ft 281kts
28-Sep-18 06:16 33.392059 -117.804008 160 7891ft 280kts
28-Sep-18 06:17 33.307129 -117.766098 159 7299ft 277kts
28-Sep-18 06:18 33.246754 -117.741089 175 6878ft 275kts
28-Sep-18 06:19 33.204742 -117.812836 296 6312ft 273kts
28-Sep-18 06:20 33.256855 -117.851570 340 5908ft 271kts
28-Sep-18 06:21 33.327187 -117.883308 339 5091ft 261kts
28-Sep-18 06:22 33.389687 -117.915222 335 4224ft 233kts
28-Sep-18 06:23 33.448570 -117.947105 335 3231ft 227kts
28-Sep-18 06:24 33.512627 -117.971313 22 2097ft 205kts
28-Sep-18 06:25 33.555054 -117.945160 27 1635ft 204kts
28-Sep-18 06:26 33.600918 -117.916168 27 1572ft 164kts
28-Sep-18 06:27 33.634102 -117.895172 27 845ft 122kts
28-Sep-18 06:28 33.665241 -117.875458 27 159ft 126kts
28-Sep-18 06:29 33.677925 -117.867844 288 52ft 8kts

Navigation Log

Ident Type
Flight plan parsing failed, navigation log unavailable